sensor_id;sensor_type;location;lat;lon;timestamp;temperature;humidity
46882;DHT22;44112;38.408;-122.974;2022-08-19T00:14:47;25.60;49.20
46882;DHT22;44112;38.408;-122.974;2022-08-19T00:17:14;25.50;49.20
46882;DHT22;44112;38.408;-122.974;2022-08-19T00:19:40;25.50;49.30
46882;DHT22;44112;38.408;-122.974;2022-08-19T00:22:06;25.40;49.40
46882;DHT22;44112;38.408;-122.974;2022-08-19T00:24:35;25.40;49.30
46882;DHT22;44112;38.408;-122.974;2022-08-19T00:27:04;25.40;49.30
46882;DHT22;44112;38.408;-122.974;2022-08-19T00:29:30;25.40;49.30
46882;DHT22;44112;38.408;-122.974;2022-08-19T00:31:57;25.20;49.50
46882;DHT22;44112;38.408;-122.974;2022-08-19T00:34:25;25.20;49.50
46882;DHT22;44112;38.408;-122.974;2022-08-19T00:36:56;25.20;49.50
46882;DHT22;44112;38.408;-122.974;2022-08-19T00:39:23;25.20;49.40
46882;DHT22;44112;38.408;-122.974;2022-08-19T00:41:50;25.30;49.70
46882;DHT22;44112;38.408;-122.974;2022-08-19T00:44:26;25.20;49.30
46882;DHT22;44112;38.408;-122.974;2022-08-19T00:46:55;25.30;49.50
46882;DHT22;44112;38.408;-122.974;2022-08-19T00:49:26;25.10;49.30
46882;DHT22;44112;38.408;-122.974;2022-08-19T00:51:59;25.20;49.50
46882;DHT22;44112;38.408;-122.974;2022-08-19T00:54:27;25.30;49.20
46882;DHT22;44112;38.408;-122.974;2022-08-19T00:56:54;25.40;49.40
46882;DHT22;44112;38.408;-122.974;2022-08-19T00:59:21;25.40;49.00
46882;DHT22;44112;38.408;-122.974;2022-08-19T01:01:48;25.40;48.80
46882;DHT22;44112;38.408;-122.974;2022-08-19T01:04:15;25.40;48.40
46882;DHT22;44112;38.408;-122.974;2022-08-19T01:06:42;25.30;48.30
46882;DHT22;44112;38.408;-122.974;2022-08-19T01:09:09;25.30;48.50
46882;DHT22;44112;38.408;-122.974;2022-08-19T01:11:40;25.30;48.40
46882;DHT22;44112;38.408;-122.974;2022-08-19T01:14:08;25.20;48.50
46882;DHT22;44112;38.408;-122.974;2022-08-19T01:16:37;25.30;48.70
46882;DHT22;44112;38.408;-122.974;2022-08-19T01:19:12;25.30;48.60
46882;DHT22;44112;38.408;-122.974;2022-08-19T01:21:57;25.30;48.70
46882;DHT22;44112;38.408;-122.974;2022-08-19T01:24:25;25.40;48.70
46882;DHT22;44112;38.408;-122.974;2022-08-19T01:26:52;25.40;48.70
46882;DHT22;44112;38.408;-122.974;2022-08-19T01:29:18;25.40;48.80
46882;DHT22;44112;38.408;-122.974;2022-08-19T01:31:45;25.30;49.30
46882;DHT22;44112;38.408;-122.974;2022-08-19T01:34:11;25.30;49.50
46882;DHT22;44112;38.408;-122.974;2022-08-19T01:36:42;25.30;49.60
46882;DHT22;44112;38.408;-122.974;2022-08-19T01:39:19;25.20;49.60
46882;DHT22;44112;38.408;-122.974;2022-08-19T01:41:47;25.20;49.60
46882;DHT22;44112;38.408;-122.974;2022-08-19T01:44:14;25.30;49.60
46882;DHT22;44112;38.408;-122.974;2022-08-19T01:46:42;25.30;49.50
46882;DHT22;44112;38.408;-122.974;2022-08-19T01:49:09;25.20;49.70
46882;DHT22;44112;38.408;-122.974;2022-08-19T01:51:37;25.20;49.60
46882;DHT22;44112;38.408;-122.974;2022-08-19T01:54:04;25.20;49.70
46882;DHT22;44112;38.408;-122.974;2022-08-19T01:56:30;25.00;50.40
46882;DHT22;44112;38.408;-122.974;2022-08-19T01:59:03;24.70;51.30
46882;DHT22;44112;38.408;-122.974;2022-08-19T02:01:30;24.50;51.70
46882;DHT22;44112;38.408;-122.974;2022-08-19T02:03:58;24.30;52.80
46882;DHT22;44112;38.408;-122.974;2022-08-19T02:06:27;24.10;52.60
46882;DHT22;44112;38.408;-122.974;2022-08-19T02:08:53;24.00;53.00
46882;DHT22;44112;38.408;-122.974;2022-08-19T02:11:23;23.90;53.40
46882;DHT22;44112;38.408;-122.974;2022-08-19T02:13:53;23.70;53.80
46882;DHT22;44112;38.408;-122.974;2022-08-19T02:16:20;23.50;54.20
46882;DHT22;44112;38.408;-122.974;2022-08-19T02:18:47;23.30;54.50
46882;DHT22;44112;38.408;-122.974;2022-08-19T02:21:18;23.20;54.60
46882;DHT22;44112;38.408;-122.974;2022-08-19T02:23:46;23.20;54.80
46882;DHT22;44112;38.408;-122.974;2022-08-19T02:26:13;23.10;55.00
46882;DHT22;44112;38.408;-122.974;2022-08-19T02:28:40;23.00;55.10
46882;DHT22;44112;38.408;-122.974;2022-08-19T02:31:18;23.00;55.00
46882;DHT22;44112;38.408;-122.974;2022-08-19T02:33:45;23.00;55.00
46882;DHT22;44112;38.408;-122.974;2022-08-19T02:36:14;23.00;55.10
46882;DHT22;44112;38.408;-122.974;2022-08-19T02:38:44;22.90;55.30
46882;DHT22;44112;38.408;-122.974;2022-08-19T02:41:20;22.90;55.70
46882;DHT22;44112;38.408;-122.974;2022-08-19T02:43:47;22.90;56.00
46882;DHT22;44112;38.408;-122.974;2022-08-19T02:46:23;22.70;56.10
46882;DHT22;44112;38.408;-122.974;2022-08-19T02:48:52;22.70;55.90
46882;DHT22;44112;38.408;-122.974;2022-08-19T02:51:24;22.70;55.40
46882;DHT22;44112;38.408;-122.974;2022-08-19T02:53:51;22.60;55.00
46882;DHT22;44112;38.408;-122.974;2022-08-19T02:56:19;22.60;54.90
46882;DHT22;44112;38.408;-122.974;2022-08-19T02:58:46;22.60;54.60
46882;DHT22;44112;38.408;-122.974;2022-08-19T03:01:29;22.70;54.70
46882;DHT22;44112;38.408;-122.974;2022-08-19T03:03:58;22.60;55.10
46882;DHT22;44112;38.408;-122.974;2022-08-19T03:06:25;22.60;54.80
46882;DHT22;44112;38.408;-122.974;2022-08-19T03:08:52;22.50;54.40
46882;DHT22;44112;38.408;-122.974;2022-08-19T03:11:27;22.70;53.90
46882;DHT22;44112;38.408;-122.974;2022-08-19T03:13:55;22.70;53.40
46882;DHT22;44112;38.408;-122.974;2022-08-19T03:16:24;22.90;52.70
46882;DHT22;44112;38.408;-122.974;2022-08-19T03:18:51;23.10;51.50
46882;DHT22;44112;38.408;-122.974;2022-08-19T03:21:21;23.30;50.80
46882;DHT22;44112;38.408;-122.974;2022-08-19T03:23:50;23.40;50.70
46882;DHT22;44112;38.408;-122.974;2022-08-19T03:26:19;23.60;50.40
46882;DHT22;44112;38.408;-122.974;2022-08-19T03:28:46;23.70;50.20
46882;DHT22;44112;38.408;-122.974;2022-08-19T03:31:17;23.80;50.10
46882;DHT22;44112;38.408;-122.974;2022-08-19T03:33:45;23.90;50.00
46882;DHT22;44112;38.408;-122.974;2022-08-19T03:36:15;23.90;50.20
46882;DHT22;44112;38.408;-122.974;2022-08-19T03:38:47;23.90;50.50
46882;DHT22;44112;38.408;-122.974;2022-08-19T03:41:17;24.00;50.40
46882;DHT22;44112;38.408;-122.974;2022-08-19T03:43:45;24.00;50.20
46882;DHT22;44112;38.408;-122.974;2022-08-19T03:46:18;23.90;50.50
46882;DHT22;44112;38.408;-122.974;2022-08-19T03:48:49;23.90;50.80
46882;DHT22;44112;38.408;-122.974;2022-08-19T03:51:23;23.80;51.30
46882;DHT22;44112;38.408;-122.974;2022-08-19T03:53:52;23.80;51.00
46882;DHT22;44112;38.408;-122.974;2022-08-19T03:56:19;23.80;50.90
46882;DHT22;44112;38.408;-122.974;2022-08-19T03:58:46;23.80;51.00
46882;DHT22;44112;38.408;-122.974;2022-08-19T04:01:17;23.80;51.30
46882;DHT22;44112;38.408;-122.974;2022-08-19T04:03:45;23.60;51.90
46882;DHT22;44112;38.408;-122.974;2022-08-19T04:06:21;23.60;52.30
46882;DHT22;44112;38.408;-122.974;2022-08-19T04:08:50;23.60;52.30
46882;DHT22;44112;38.408;-122.974;2022-08-19T04:11:19;23.50;52.40
46882;DHT22;44112;38.408;-122.974;2022-08-19T04:13:50;23.50;52.30
46882;DHT22;44112;38.408;-122.974;2022-08-19T04:16:25;23.60;51.90
46882;DHT22;44112;38.408;-122.974;2022-08-19T04:18:56;23.60;51.90
46882;DHT22;44112;38.408;-122.974;2022-08-19T04:21:25;23.70;51.70
46882;DHT22;44112;38.408;-122.974;2022-08-19T04:23:53;23.60;51.90
46882;DHT22;44112;38.408;-122.974;2022-08-19T04:26:26;23.60;52.20
46882;DHT22;44112;38.408;-122.974;2022-08-19T04:28:54;23.50;52.00
46882;DHT22;44112;38.408;-122.974;2022-08-19T04:31:25;23.50;51.30
46882;DHT22;44112;38.408;-122.974;2022-08-19T04:33:58;23.50;51.00
46882;DHT22;44112;38.408;-122.974;2022-08-19T04:36:27;23.60;50.50
46882;DHT22;44112;38.408;-122.974;2022-08-19T04:38:58;23.70;50.30
46882;DHT22;44112;38.408;-122.974;2022-08-19T04:41:25;23.70;49.90
46882;DHT22;44112;38.408;-122.974;2022-08-19T04:44:11;23.70;49.90
46882;DHT22;44112;38.408;-122.974;2022-08-19T04:46:38;23.70;49.60
46882;DHT22;44112;38.408;-122.974;2022-08-19T04:49:06;23.70;49.70
46882;DHT22;44112;38.408;-122.974;2022-08-19T04:51:35;23.70;49.60
46882;DHT22;44112;38.408;-122.974;2022-08-19T04:54:03;23.70;49.30
46882;DHT22;44112;38.408;-122.974;2022-08-19T04:56:30;23.70;48.80
46882;DHT22;44112;38.408;-122.974;2022-08-19T04:58:59;23.70;48.20
46882;DHT22;44112;38.408;-122.974;2022-08-19T05:01:31;23.60;47.60
46882;DHT22;44112;38.408;-122.974;2022-08-19T05:04:00;23.70;48.00
46882;DHT22;44112;38.408;-122.974;2022-08-19T05:06:27;23.70;48.20
46882;DHT22;44112;38.408;-122.974;2022-08-19T05:08:56;23.60;48.50
46882;DHT22;44112;38.408;-122.974;2022-08-19T05:11:26;23.70;48.60
46882;DHT22;44112;38.408;-122.974;2022-08-19T05:13:54;23.70;49.00
46882;DHT22;44112;38.408;-122.974;2022-08-19T05:16:23;23.60;49.90
46882;DHT22;44112;38.408;-122.974;2022-08-19T05:18:50;23.50;50.20
46882;DHT22;44112;38.408;-122.974;2022-08-19T05:21:36;23.40;51.70
46882;DHT22;44112;38.408;-122.974;2022-08-19T05:24:22;23.40;52.70
46882;DHT22;44112;38.408;-122.974;2022-08-19T05:26:51;23.40;52.50
46882;DHT22;44112;38.408;-122.974;2022-08-19T05:29:20;23.50;52.20
46882;DHT22;44112;38.408;-122.974;2022-08-19T05:31:47;23.50;52.00
46882;DHT22;44112;38.408;-122.974;2022-08-19T05:34:19;23.50;51.60
46882;DHT22;44112;38.408;-122.974;2022-08-19T05:36:49;23.50;51.80
46882;DHT22;44112;38.408;-122.974;2022-08-19T05:39:18;23.50;52.00
46882;DHT22;44112;38.408;-122.974;2022-08-19T05:41:48;23.50;52.00
46882;DHT22;44112;38.408;-122.974;2022-08-19T05:44:16;23.60;51.90
46882;DHT22;44112;38.408;-122.974;2022-08-19T05:46:44;23.60;51.70
46882;DHT22;44112;38.408;-122.974;2022-08-19T05:49:13;23.60;51.80
46882;DHT22;44112;38.408;-122.974;2022-08-19T05:51:41;23.60;52.10
46882;DHT22;44112;38.408;-122.974;2022-08-19T05:54:09;23.60;52.30
46882;DHT22;44112;38.408;-122.974;2022-08-19T05:56:37;23.70;52.10
46882;DHT22;44112;38.408;-122.974;2022-08-19T05:59:08;23.70;51.80
46882;DHT22;44112;38.408;-122.974;2022-08-19T06:01:38;23.70;51.70
46882;DHT22;44112;38.408;-122.974;2022-08-19T06:04:06;23.70;51.00
46882;DHT22;44112;38.408;-122.974;2022-08-19T06:06:33;23.70;51.20
46882;DHT22;44112;38.408;-122.974;2022-08-19T06:09:05;23.70;50.60
46882;DHT22;44112;38.408;-122.974;2022-08-19T06:11:34;23.70;50.30
46882;DHT22;44112;38.408;-122.974;2022-08-19T06:14:06;23.70;50.20
46882;DHT22;44112;38.408;-122.974;2022-08-19T06:16:38;23.70;50.00
46882;DHT22;44112;38.408;-122.974;2022-08-19T06:19:14;23.70;49.90
46882;DHT22;44112;38.408;-122.974;2022-08-19T06:21:44;23.60;49.60
46882;DHT22;44112;38.408;-122.974;2022-08-19T06:24:17;23.70;49.60
46882;DHT22;44112;38.408;-122.974;2022-08-19T06:26:45;23.60;50.10
46882;DHT22;44112;38.408;-122.974;2022-08-19T06:29:13;23.60;49.30
46882;DHT22;44112;38.408;-122.974;2022-08-19T06:31:43;23.60;49.30
46882;DHT22;44112;38.408;-122.974;2022-08-19T06:34:11;23.60;49.20
46882;DHT22;44112;38.408;-122.974;2022-08-19T06:36:41;23.60;49.10
46882;DHT22;44112;38.408;-122.974;2022-08-19T06:39:12;23.60;49.10
46882;DHT22;44112;38.408;-122.974;2022-08-19T06:41:42;23.60;49.20
46882;DHT22;44112;38.408;-122.974;2022-08-19T06:44:10;23.60;49.00
46882;DHT22;44112;38.408;-122.974;2022-08-19T06:46:37;23.60;49.20
46882;DHT22;44112;38.408;-122.974;2022-08-19T06:49:04;23.50;49.20
46882;DHT22;44112;38.408;-122.974;2022-08-19T06:51:31;23.50;49.40
46882;DHT22;44112;38.408;-122.974;2022-08-19T06:53:58;23.50;49.50
46882;DHT22;44112;38.408;-122.974;2022-08-19T06:56:28;23.40;49.90
46882;DHT22;44112;38.408;-122.974;2022-08-19T06:59:13;23.30;50.10
46882;DHT22;44112;38.408;-122.974;2022-08-19T07:01:47;23.30;50.20
46882;DHT22;44112;38.408;-122.974;2022-08-19T07:04:23;23.40;50.10
46882;DHT22;44112;38.408;-122.974;2022-08-19T07:07:06;23.50;50.00
46882;DHT22;44112;38.408;-122.974;2022-08-19T07:09:37;23.50;50.30
46882;DHT22;44112;38.408;-122.974;2022-08-19T07:12:06;23.50;50.50
46882;DHT22;44112;38.408;-122.974;2022-08-19T07:14:34;23.60;50.80
46882;DHT22;44112;38.408;-122.974;2022-08-19T07:17:05;23.60;51.90
46882;DHT22;44112;38.408;-122.974;2022-08-19T07:19:33;23.70;51.50
46882;DHT22;44112;38.408;-122.974;2022-08-19T07:22:03;23.80;51.40
46882;DHT22;44112;38.408;-122.974;2022-08-19T07:24:30;23.70;51.20
46882;DHT22;44112;38.408;-122.974;2022-08-19T07:26:59;23.70;51.10
46882;DHT22;44112;38.408;-122.974;2022-08-19T07:29:27;23.70;51.00
46882;DHT22;44112;38.408;-122.974;2022-08-19T07:31:54;23.70;50.90
46882;DHT22;44112;38.408;-122.974;2022-08-19T07:34:26;23.70;50.70
46882;DHT22;44112;38.408;-122.974;2022-08-19T07:36:53;23.70;50.70
46882;DHT22;44112;38.408;-122.974;2022-08-19T07:39:23;23.70;50.80
46882;DHT22;44112;38.408;-122.974;2022-08-19T07:41:50;23.70;50.90
46882;DHT22;44112;38.408;-122.974;2022-08-19T07:44:18;23.70;50.90
46882;DHT22;44112;38.408;-122.974;2022-08-19T07:46:48;23.60;50.90
46882;DHT22;44112;38.408;-122.974;2022-08-19T07:49:15;23.60;50.90
46882;DHT22;44112;38.408;-122.974;2022-08-19T07:51:47;23.60;50.90
46882;DHT22;44112;38.408;-122.974;2022-08-19T07:54:14;23.70;51.00
46882;DHT22;44112;38.408;-122.974;2022-08-19T07:56:41;23.60;50.90
46882;DHT22;44112;38.408;-122.974;2022-08-19T07:59:07;23.60;51.00
46882;DHT22;44112;38.408;-122.974;2022-08-19T08:01:35;23.60;51.00
46882;DHT22;44112;38.408;-122.974;2022-08-19T08:04:02;23.60;51.00
46882;DHT22;44112;38.408;-122.974;2022-08-19T08:06:52;23.60;50.90
46882;DHT22;44112;38.408;-122.974;2022-08-19T08:09:41;23.50;51.00
46882;DHT22;44112;38.408;-122.974;2022-08-19T08:12:12;23.50;50.90
46882;DHT22;44112;38.408;-122.974;2022-08-19T08:14:50;23.50;51.00
46882;DHT22;44112;38.408;-122.974;2022-08-19T08:17:20;23.60;51.10
46882;DHT22;44112;38.408;-122.974;2022-08-19T08:19:48;23.60;51.10
46882;DHT22;44112;38.408;-122.974;2022-08-19T08:22:18;23.60;51.20
46882;DHT22;44112;38.408;-122.974;2022-08-19T08:25:15;23.60;51.20
46882;DHT22;44112;38.408;-122.974;2022-08-19T08:27:45;23.60;51.20
46882;DHT22;44112;38.408;-122.974;2022-08-19T08:30:18;23.50;51.30
46882;DHT22;44112;38.408;-122.974;2022-08-19T08:32:45;23.50;51.40
46882;DHT22;44112;38.408;-122.974;2022-08-19T08:35:15;23.50;51.50
46882;DHT22;44112;38.408;-122.974;2022-08-19T08:37:43;23.40;51.50
46882;DHT22;44112;38.408;-122.974;2022-08-19T08:42:51;23.40;51.60
46882;DHT22;44112;38.408;-122.974;2022-08-19T08:45:19;23.40;51.70
46882;DHT22;44112;38.408;-122.974;2022-08-19T08:47:49;23.40;51.50
46882;DHT22;44112;38.408;-122.974;2022-08-19T08:53:19;23.50;51.50
46882;DHT22;44112;38.408;-122.974;2022-08-19T08:55:48;23.50;51.50
46882;DHT22;44112;38.408;-122.974;2022-08-19T08:58:24;23.50;51.50
46882;DHT22;44112;38.408;-122.974;2022-08-19T09:00:52;23.50;51.50
46882;DHT22;44112;38.408;-122.974;2022-08-19T09:03:23;23.50;51.70
46882;DHT22;44112;38.408;-122.974;2022-08-19T09:06:44;23.40;51.50
46882;DHT22;44112;38.408;-122.974;2022-08-19T09:14:36;23.40;51.70
46882;DHT22;44112;38.408;-122.974;2022-08-19T09:17:09;23.40;51.60
46882;DHT22;44112;38.408;-122.974;2022-08-19T09:19:58;23.40;51.60
46882;DHT22;44112;38.408;-122.974;2022-08-19T09:22:23;23.40;51.70
46882;DHT22;44112;38.408;-122.974;2022-08-19T09:24:51;23.40;51.70
46882;DHT22;44112;38.408;-122.974;2022-08-19T09:27:22;23.40;51.70
46882;DHT22;44112;38.408;-122.974;2022-08-19T09:29:53;23.40;51.60
46882;DHT22;44112;38.408;-122.974;2022-08-19T09:32:20;23.40;51.50
46882;DHT22;44112;38.408;-122.974;2022-08-19T09:34:47;23.40;51.70
46882;DHT22;44112;38.408;-122.974;2022-08-19T09:37:13;23.40;51.50
46882;DHT22;44112;38.408;-122.974;2022-08-19T09:39:41;23.30;51.50
46882;DHT22;44112;38.408;-122.974;2022-08-19T09:42:08;23.30;51.50
46882;DHT22;44112;38.408;-122.974;2022-08-19T09:44:40;23.30;51.50
46882;DHT22;44112;38.408;-122.974;2022-08-19T09:47:11;23.30;51.70
46882;DHT22;44112;38.408;-122.974;2022-08-19T09:49:38;23.20;51.70
46882;DHT22;44112;38.408;-122.974;2022-08-19T09:52:05;23.30;51.60
46882;DHT22;44112;38.408;-122.974;2022-08-19T09:54:34;23.20;51.60
46882;DHT22;44112;38.408;-122.974;2022-08-19T09:57:01;23.30;51.60
46882;DHT22;44112;38.408;-122.974;2022-08-19T09:59:28;23.30;51.60
46882;DHT22;44112;38.408;-122.974;2022-08-19T10:01:55;23.30;51.70
46882;DHT22;44112;38.408;-122.974;2022-08-19T10:04:22;23.30;51.60
46882;DHT22;44112;38.408;-122.974;2022-08-19T10:06:50;23.30;52.20
46882;DHT22;44112;38.408;-122.974;2022-08-19T10:09:18;23.30;51.60
46882;DHT22;44112;38.408;-122.974;2022-08-19T10:11:45;23.30;51.60
46882;DHT22;44112;38.408;-122.974;2022-08-19T10:14:15;23.20;51.70
46882;DHT22;44112;38.408;-122.974;2022-08-19T10:16:43;23.20;51.70
46882;DHT22;44112;38.408;-122.974;2022-08-19T10:19:09;23.10;51.70
46882;DHT22;44112;38.408;-122.974;2022-08-19T10:21:36;23.10;51.80
46882;DHT22;44112;38.408;-122.974;2022-08-19T10:24:04;23.20;51.80
46882;DHT22;44112;38.408;-122.974;2022-08-19T10:26:39;23.20;51.80
46882;DHT22;44112;38.408;-122.974;2022-08-19T10:29:08;23.20;51.80
46882;DHT22;44112;38.408;-122.974;2022-08-19T10:31:35;23.20;51.80
46882;DHT22;44112;38.408;-122.974;2022-08-19T10:34:02;23.20;51.70
46882;DHT22;44112;38.408;-122.974;2022-08-19T10:36:32;23.20;51.70
46882;DHT22;44112;38.408;-122.974;2022-08-19T10:39:03;23.20;51.80
46882;DHT22;44112;38.408;-122.974;2022-08-19T10:41:33;23.20;51.70
46882;DHT22;44112;38.408;-122.974;2022-08-19T10:44:03;23.10;51.70
46882;DHT22;44112;38.408;-122.974;2022-08-19T10:46:35;23.10;51.70
46882;DHT22;44112;38.408;-122.974;2022-08-19T10:49:04;23.10;51.80
46882;DHT22;44112;38.408;-122.974;2022-08-19T10:51:32;23.10;51.80
46882;DHT22;44112;38.408;-122.974;2022-08-19T10:54:17;23.10;51.80
46882;DHT22;44112;38.408;-122.974;2022-08-19T10:56:44;23.10;51.80
46882;DHT22;44112;38.408;-122.974;2022-08-19T10:59:20;23.10;51.90
46882;DHT22;44112;38.408;-122.974;2022-08-19T11:01:48;23.10;51.80
46882;DHT22;44112;38.408;-122.974;2022-08-19T11:04:15;23.10;51.90
46882;DHT22;44112;38.408;-122.974;2022-08-19T11:06:47;23.10;51.80
46882;DHT22;44112;38.408;-122.974;2022-08-19T11:09:21;23.10;51.80
46882;DHT22;44112;38.408;-122.974;2022-08-19T11:11:55;23.10;51.90
46882;DHT22;44112;38.408;-122.974;2022-08-19T11:14:23;23.00;51.90
46882;DHT22;44112;38.408;-122.974;2022-08-19T11:16:52;23.00;51.90
46882;DHT22;44112;38.408;-122.974;2022-08-19T11:19:22;23.00;51.90
46882;DHT22;44112;38.408;-122.974;2022-08-19T11:21:50;23.00;51.90
46882;DHT22;44112;38.408;-122.974;2022-08-19T11:24:23;22.90;51.90
46882;DHT22;44112;38.408;-122.974;2022-08-19T11:26:51;22.90;51.90
46882;DHT22;44112;38.408;-122.974;2022-08-19T11:29:20;22.90;52.00
46882;DHT22;44112;38.408;-122.974;2022-08-19T11:31:48;22.90;51.90
46882;DHT22;44112;38.408;-122.974;2022-08-19T11:34:19;23.00;52.00
46882;DHT22;44112;38.408;-122.974;2022-08-19T11:36:47;23.00;52.00
46882;DHT22;44112;38.408;-122.974;2022-08-19T11:39:16;23.00;51.90
46882;DHT22;44112;38.408;-122.974;2022-08-19T11:41:42;23.00;51.90
46882;DHT22;44112;38.408;-122.974;2022-08-19T11:44:10;23.00;52.10
46882;DHT22;44112;38.408;-122.974;2022-08-19T11:46:37;22.90;52.00
46882;DHT22;44112;38.408;-122.974;2022-08-19T11:49:06;22.90;51.90
46882;DHT22;44112;38.408;-122.974;2022-08-19T11:51:33;22.90;52.00
46882;DHT22;44112;38.408;-122.974;2022-08-19T11:54:00;22.90;52.00
46882;DHT22;44112;38.408;-122.974;2022-08-19T11:56:28;22.90;52.00
46882;DHT22;44112;38.408;-122.974;2022-08-19T11:58:55;22.80;51.90
46882;DHT22;44112;38.408;-122.974;2022-08-19T12:01:26;22.90;52.00
46882;DHT22;44112;38.408;-122.974;2022-08-19T12:03:55;22.90;52.00
46882;DHT22;44112;38.408;-122.974;2022-08-19T12:06:30;22.80;52.10
46882;DHT22;44112;38.408;-122.974;2022-08-19T12:08:59;22.90;52.20
46882;DHT22;44112;38.408;-122.974;2022-08-19T12:11:26;22.90;52.10
46882;DHT22;44112;38.408;-122.974;2022-08-19T12:13:53;22.80;52.10
46882;DHT22;44112;38.408;-122.974;2022-08-19T12:16:27;22.80;52.30
46882;DHT22;44112;38.408;-122.974;2022-08-19T12:18:55;22.80;52.10
46882;DHT22;44112;38.408;-122.974;2022-08-19T12:21:24;22.80;52.10
46882;DHT22;44112;38.408;-122.974;2022-08-19T12:23:54;22.80;52.10
46882;DHT22;44112;38.408;-122.974;2022-08-19T12:26:23;22.70;52.10
46882;DHT22;44112;38.408;-122.974;2022-08-19T12:28:50;22.70;52.20
46882;DHT22;44112;38.408;-122.974;2022-08-19T12:31:17;22.70;52.20
46882;DHT22;44112;38.408;-122.974;2022-08-19T12:33:46;22.70;52.20
46882;DHT22;44112;38.408;-122.974;2022-08-19T12:36:15;22.70;52.30
46882;DHT22;44112;38.408;-122.974;2022-08-19T12:38:42;22.70;52.20
46882;DHT22;44112;38.408;-122.974;2022-08-19T12:41:12;22.70;52.20
46882;DHT22;44112;38.408;-122.974;2022-08-19T12:43:41;22.70;52.20
46882;DHT22;44112;38.408;-122.974;2022-08-19T12:46:08;22.80;52.20
46882;DHT22;44112;38.408;-122.974;2022-08-19T12:48:35;22.70;52.50
46882;DHT22;44112;38.408;-122.974;2022-08-19T12:51:07;22.70;52.20
46882;DHT22;44112;38.408;-122.974;2022-08-19T12:53:35;22.70;52.30
46882;DHT22;44112;38.408;-122.974;2022-08-19T12:56:02;22.70;52.30
46882;DHT22;44112;38.408;-122.974;2022-08-19T12:58:29;22.60;52.20
46882;DHT22;44112;38.408;-122.974;2022-08-19T13:00:55;22.60;52.30
46882;DHT22;44112;38.408;-122.974;2022-08-19T13:03:23;22.60;52.40
46882;DHT22;44112;38.408;-122.974;2022-08-19T13:05:55;22.60;52.40
46882;DHT22;44112;38.408;-122.974;2022-08-19T13:08:22;22.60;52.50
46882;DHT22;44112;38.408;-122.974;2022-08-19T13:10:49;22.60;52.30
46882;DHT22;44112;38.408;-122.974;2022-08-19T13:13:17;22.60;52.30
46882;DHT22;44112;38.408;-122.974;2022-08-19T13:15:44;22.60;52.40
46882;DHT22;44112;38.408;-122.974;2022-08-19T13:18:12;22.60;52.30
46882;DHT22;44112;38.408;-122.974;2022-08-19T13:20:39;22.60;52.50
46882;DHT22;44112;38.408;-122.974;2022-08-19T13:23:09;22.60;52.30
46882;DHT22;44112;38.408;-122.974;2022-08-19T13:25:36;22.60;52.40
46882;DHT22;44112;38.408;-122.974;2022-08-19T13:28:04;22.60;52.50
46882;DHT22;44112;38.408;-122.974;2022-08-19T13:30:32;22.50;52.50
46882;DHT22;44112;38.408;-122.974;2022-08-19T13:33:16;22.50;52.50
46882;DHT22;44112;38.408;-122.974;2022-08-19T13:35:48;22.50;52.50
46882;DHT22;44112;38.408;-122.974;2022-08-19T13:38:18;22.50;52.60
46882;DHT22;44112;38.408;-122.974;2022-08-19T13:40:46;22.50;52.50
46882;DHT22;44112;38.408;-122.974;2022-08-19T13:43:14;22.50;52.50
46882;DHT22;44112;38.408;-122.974;2022-08-19T13:45:41;22.50;52.50
46882;DHT22;44112;38.408;-122.974;2022-08-19T13:48:08;22.50;52.40
46882;DHT22;44112;38.408;-122.974;2022-08-19T13:50:45;22.50;52.40
46882;DHT22;44112;38.408;-122.974;2022-08-19T13:53:14;22.50;52.50
46882;DHT22;44112;38.408;-122.974;2022-08-19T13:55:42;22.50;52.50
46882;DHT22;44112;38.408;-122.974;2022-08-19T13:58:10;22.50;52.60
46882;DHT22;44112;38.408;-122.974;2022-08-19T14:00:44;22.50;52.50
46882;DHT22;44112;38.408;-122.974;2022-08-19T14:03:11;22.40;52.60
46882;DHT22;44112;38.408;-122.974;2022-08-19T14:05:37;22.40;52.60
46882;DHT22;44112;38.408;-122.974;2022-08-19T14:08:05;22.40;52.70
46882;DHT22;44112;38.408;-122.974;2022-08-19T14:10:31;22.40;52.60
46882;DHT22;44112;38.408;-122.974;2022-08-19T14:13:00;22.40;52.60
46882;DHT22;44112;38.408;-122.974;2022-08-19T14:15:28;22.50;52.60
46882;DHT22;44112;38.408;-122.974;2022-08-19T14:17:56;22.40;52.50
46882;DHT22;44112;38.408;-122.974;2022-08-19T14:20:23;22.40;52.50
46882;DHT22;44112;38.408;-122.974;2022-08-19T14:22:50;22.40;52.60
46882;DHT22;44112;38.408;-122.974;2022-08-19T14:25:19;22.40;52.60
46882;DHT22;44112;38.408;-122.974;2022-08-19T14:27:47;22.40;52.60
46882;DHT22;44112;38.408;-122.974;2022-08-19T14:30:18;22.40;52.60
46882;DHT22;44112;38.408;-122.974;2022-08-19T14:32:45;22.40;52.70
46882;DHT22;44112;38.408;-122.974;2022-08-19T14:35:14;22.40;52.70
46882;DHT22;44112;38.408;-122.974;2022-08-19T14:37:42;22.30;52.80
46882;DHT22;44112;38.408;-122.974;2022-08-19T14:40:10;22.30;52.90
46882;DHT22;44112;38.408;-122.974;2022-08-19T14:42:37;22.30;52.80
46882;DHT22;44112;38.408;-122.974;2022-08-19T14:45:05;22.30;52.80
46882;DHT22;44112;38.408;-122.974;2022-08-19T14:47:31;22.40;52.70
46882;DHT22;44112;38.408;-122.974;2022-08-19T14:49:58;22.30;52.80
46882;DHT22;44112;38.408;-122.974;2022-08-19T14:52:25;22.30;52.80
46882;DHT22;44112;38.408;-122.974;2022-08-19T14:54:52;22.30;52.80
46882;DHT22;44112;38.408;-122.974;2022-08-19T14:57:18;22.30;52.80
46882;DHT22;44112;38.408;-122.974;2022-08-19T14:59:45;22.30;52.90
46882;DHT22;44112;38.408;-122.974;2022-08-19T15:02:12;22.30;53.00
46882;DHT22;44112;38.408;-122.974;2022-08-19T15:04:38;22.30;53.00
46882;DHT22;44112;38.408;-122.974;2022-08-19T15:07:05;22.30;53.10
46882;DHT22;44112;38.408;-122.974;2022-08-19T15:09:33;22.20;53.10
46882;DHT22;44112;38.408;-122.974;2022-08-19T15:12:01;22.20;53.10
46882;DHT22;44112;38.408;-122.974;2022-08-19T15:14:29;22.30;53.00
46882;DHT22;44112;38.408;-122.974;2022-08-19T15:17:02;22.20;53.10
46882;DHT22;44112;38.408;-122.974;2022-08-19T15:19:30;22.30;53.10
46882;DHT22;44112;38.408;-122.974;2022-08-19T15:21:57;22.30;53.10
46882;DHT22;44112;38.408;-122.974;2022-08-19T15:24:26;22.30;53.10
46882;DHT22;44112;38.408;-122.974;2022-08-19T15:26:53;22.30;53.10